createdAt,value
2018-12-20T00:01:47.359Z,5.40
2018-12-20T00:04:14.881Z,5.40
2018-12-20T00:06:42.461Z,5.40
2018-12-20T00:09:10.020Z,5.40
2018-12-20T00:11:37.561Z,5.40
2018-12-20T00:14:05.164Z,5.40
2018-12-20T00:16:32.755Z,5.40
2018-12-20T00:19:00.467Z,5.40
2018-12-20T00:21:28.271Z,5.40
2018-12-20T00:23:55.970Z,5.40
2018-12-20T00:26:23.592Z,5.40
2018-12-20T00:28:51.224Z,5.40
2018-12-20T00:31:18.914Z,5.40
2018-12-20T00:33:46.581Z,5.40
2018-12-20T00:36:14.251Z,5.40
2018-12-20T00:38:41.882Z,5.40
2018-12-20T00:41:09.474Z,5.50
2018-12-20T00:43:37.079Z,5.50
2018-12-20T00:46:04.801Z,5.50
2018-12-20T00:48:32.448Z,5.50
2018-12-20T00:51:00.152Z,5.50
2018-12-20T00:53:27.809Z,5.50
2018-12-20T00:55:55.478Z,5.50
2018-12-20T00:58:23.151Z,5.50
2018-12-20T01:00:50.697Z,5.50
2018-12-20T01:03:18.353Z,5.50
2018-12-20T01:05:46.188Z,5.40
2018-12-20T01:08:13.932Z,5.40
2018-12-20T01:10:41.598Z,5.40
2018-12-20T01:13:09.408Z,5.40
2018-12-20T01:15:37.083Z,5.40
2018-12-20T01:18:04.684Z,5.40
2018-12-20T01:20:32.399Z,5.30
2018-12-20T01:23:00.384Z,5.40
2018-12-20T01:25:28.080Z,5.40
2018-12-20T01:27:55.740Z,5.40
2018-12-20T01:30:23.367Z,5.40
2018-12-20T01:32:51.109Z,5.50
2018-12-20T01:35:18.863Z,5.40
2018-12-20T01:37:46.452Z,5.50
2018-12-20T01:40:14.059Z,5.40
2018-12-20T01:42:41.727Z,5.50
2018-12-20T01:45:09.401Z,5.50
2018-12-20T01:47:37.111Z,5.50
2018-12-20T01:50:06.889Z,5.40
2018-12-20T01:52:34.440Z,5.40
2018-12-20T01:55:01.963Z,5.40
2018-12-20T01:57:29.722Z,5.30
2018-12-20T01:59:57.316Z,5.40
2018-12-20T02:02:25.038Z,5.30
2018-12-20T02:04:52.669Z,5.40
2018-12-20T02:07:20.380Z,5.30
2018-12-20T02:09:48.796Z,5.30
2018-12-20T02:12:16.452Z,5.30
2018-12-20T02:14:44.159Z,5.30
2018-12-20T02:17:11.881Z,5.30
2018-12-20T02:19:39.679Z,5.20
2018-12-20T02:22:07.530Z,5.20
2018-12-20T02:24:35.110Z,5.20
2018-12-20T02:27:02.849Z,5.20
2018-12-20T02:29:30.431Z,5.20
2018-12-20T02:31:59.965Z,5.20
2018-12-20T02:34:27.634Z,5.20
2018-12-20T02:36:55.245Z,5.20
2018-12-20T02:39:22.904Z,5.10
2018-12-20T02:41:50.598Z,5.10
2018-12-20T02:44:19.042Z,5.10
2018-12-20T02:46:46.650Z,5.10
2018-12-20T02:49:14.322Z,5.10
2018-12-20T02:51:42.060Z,5.10
2018-12-20T02:54:09.961Z,5.10
2018-12-20T02:56:37.804Z,5.10
2018-12-20T02:59:05.664Z,5.10
2018-12-20T03:01:33.435Z,5.20
2018-12-20T03:04:01.076Z,5.20
2018-12-20T03:06:28.601Z,5.20
2018-12-20T03:08:56.244Z,5.20
2018-12-20T03:11:23.878Z,5.20
2018-12-20T03:13:51.439Z,5.20
2018-12-20T03:16:19.437Z,5.20
2018-12-20T03:18:47.173Z,5.10
2018-12-20T03:21:14.848Z,5.10
2018-12-20T03:23:42.447Z,5.10
2018-12-20T03:26:10.316Z,5.10
2018-12-20T03:28:37.967Z,5.00
2018-12-20T03:31:05.950Z,5.00
2018-12-20T03:33:33.748Z,4.90
2018-12-20T03:36:01.300Z,4.90
2018-12-20T03:38:28.927Z,4.80
2018-12-20T03:40:56.516Z,4.80
2018-12-20T03:43:24.304Z,4.80
2018-12-20T03:45:51.902Z,4.80
2018-12-20T03:48:19.544Z,4.70
2018-12-20T03:50:47.148Z,4.70
2018-12-20T03:53:14.760Z,4.70
2018-12-20T03:55:42.433Z,4.70
2018-12-20T03:58:10.170Z,4.70
2018-12-20T04:00:37.749Z,4.70
2018-12-20T04:03:05.309Z,4.60
2018-12-20T04:05:32.985Z,4.60
2018-12-20T04:08:00.587Z,4.70
2018-12-20T04:10:28.263Z,4.70
2018-12-20T04:12:55.857Z,4.80
2018-12-20T04:15:23.624Z,4.80
2018-12-20T04:17:51.376Z,4.80
2018-12-20T04:20:19.095Z,4.90
2018-12-20T04:22:46.904Z,4.90
2018-12-20T04:25:14.607Z,4.90
2018-12-20T04:27:42.213Z,4.90
2018-12-20T04:30:09.991Z,4.80
2018-12-20T04:32:37.678Z,4.90
2018-12-20T04:35:05.518Z,4.90
2018-12-20T04:37:33.130Z,4.90
2018-12-20T04:40:01.645Z,4.80
2018-12-20T04:42:29.376Z,4.80
2018-12-20T04:44:56.915Z,4.80
2018-12-20T04:47:24.621Z,4.80
2018-12-20T04:49:52.267Z,4.80
2018-12-20T04:52:20.664Z,4.80
2018-12-20T04:54:48.396Z,4.80
2018-12-20T04:57:16.136Z,4.80
2018-12-20T04:59:43.808Z,4.80
2018-12-20T05:02:11.608Z,4.70
2018-12-20T05:04:39.395Z,4.80
2018-12-20T05:07:07.063Z,4.80
2018-12-20T05:09:34.630Z,4.80
2018-12-20T05:12:02.164Z,4.80
2018-12-20T05:14:29.743Z,4.70
2018-12-20T05:16:57.619Z,4.70
2018-12-20T05:19:25.223Z,4.70
2018-12-20T05:21:53.038Z,4.70
2018-12-20T05:24:21.101Z,4.70
2018-12-20T05:26:48.801Z,4.70
2018-12-20T05:29:16.513Z,4.70
2018-12-20T05:31:44.448Z,4.70
2018-12-20T05:34:12.053Z,4.70
2018-12-20T05:36:39.715Z,4.90
2018-12-20T05:39:07.571Z,4.90
2018-12-20T05:41:35.400Z,4.90
2018-12-20T05:44:03.231Z,4.80
2018-12-20T05:46:30.859Z,4.80
2018-12-20T05:48:58.525Z,4.80
2018-12-20T05:51:26.755Z,4.80
2018-12-20T05:53:54.417Z,4.70
2018-12-20T05:56:22.804Z,4.70
2018-12-20T05:58:50.342Z,4.70
2018-12-20T06:01:17.907Z,4.80
2018-12-20T06:03:45.427Z,4.80
2018-12-20T06:06:13.198Z,4.80
2018-12-20T06:08:40.847Z,4.80
2018-12-20T06:11:08.468Z,4.80
2018-12-20T06:13:36.174Z,4.80
2018-12-20T06:16:03.951Z,4.80
2018-12-20T06:18:33.244Z,4.80
2018-12-20T06:21:00.868Z,4.80
2018-12-20T06:23:28.439Z,4.80
2018-12-20T06:25:56.011Z,4.80
2018-12-20T06:28:23.578Z,4.80
2018-12-20T06:30:52.075Z,4.80
2018-12-20T06:33:19.597Z,4.80
2018-12-20T06:35:47.132Z,4.80
2018-12-20T06:38:14.800Z,4.90
2018-12-20T06:40:42.364Z,5.00
2018-12-20T06:43:09.934Z,5.10
2018-12-20T06:45:37.552Z,5.20
2018-12-20T06:48:05.103Z,5.20
2018-12-20T06:50:32.627Z,5.20
2018-12-20T06:53:00.209Z,5.30
2018-12-20T06:55:27.736Z,5.40
2018-12-20T06:57:55.307Z,5.40
2018-12-20T07:00:23.904Z,5.30
2018-12-20T07:02:52.203Z,5.20
2018-12-20T07:05:19.714Z,5.10
2018-12-20T07:07:47.406Z,5.00
2018-12-20T07:10:15.250Z,5.00
2018-12-20T07:12:42.845Z,4.90
2018-12-20T07:15:10.411Z,4.90
2018-12-20T07:17:37.981Z,4.80
2018-12-20T07:20:06.220Z,4.80
2018-12-20T07:22:33.792Z,4.80
2018-12-20T07:25:01.334Z,4.80
2018-12-20T07:27:28.879Z,4.70
2018-12-20T07:29:56.443Z,4.70
2018-12-20T07:32:25.261Z,4.80
2018-12-20T07:34:53.287Z,4.90
2018-12-20T07:37:20.856Z,4.80
2018-12-20T07:39:48.371Z,4.80
2018-12-20T07:42:15.901Z,4.90
2018-12-20T07:44:43.469Z,4.90
2018-12-20T07:47:10.991Z,4.90
2018-12-20T07:49:38.514Z,4.90
2018-12-20T07:52:06.099Z,4.80
2018-12-20T07:54:33.627Z,4.80
2018-12-20T07:57:01.255Z,4.70
2018-12-20T07:59:28.887Z,4.70
2018-12-20T08:01:56.418Z,4.70
2018-12-20T08:04:23.939Z,4.70
2018-12-20T08:06:51.559Z,4.70
2018-12-20T08:09:19.083Z,4.80
2018-12-20T08:11:46.644Z,4.80
2018-12-20T08:14:14.287Z,4.80
2018-12-20T08:16:46.015Z,4.80
2018-12-20T08:19:11.355Z,4.80
2018-12-20T08:21:38.934Z,4.90
2018-12-20T08:24:06.459Z,4.90
2018-12-20T08:26:34.288Z,5.00
2018-12-20T08:29:01.921Z,5.00
2018-12-20T08:31:29.537Z,5.00
2018-12-20T08:33:57.374Z,5.10
2018-12-20T08:36:25.144Z,5.10
2018-12-20T08:38:52.729Z,5.20
2018-12-20T08:41:20.327Z,5.20
2018-12-20T08:43:47.917Z,5.20
2018-12-20T08:46:15.662Z,5.30
2018-12-20T08:48:43.361Z,5.40
2018-12-20T08:51:11.214Z,5.40
2018-12-20T08:53:38.824Z,5.30
2018-12-20T08:56:06.407Z,5.40
2018-12-20T08:58:34.066Z,5.40
2018-12-20T09:01:01.771Z,5.40
2018-12-20T09:03:29.419Z,5.40
2018-12-20T09:05:57.009Z,5.40
2018-12-20T09:08:25.480Z,5.40
2018-12-20T09:10:53.169Z,5.40
2018-12-20T09:13:20.735Z,5.40
2018-12-20T09:15:48.263Z,5.40
2018-12-20T09:18:15.785Z,5.50
2018-12-20T09:20:43.349Z,5.50
2018-12-20T09:23:10.871Z,5.50
2018-12-20T09:25:38.391Z,5.60
2018-12-20T09:28:05.967Z,5.60
2018-12-20T09:30:33.488Z,5.60
2018-12-20T09:33:01.012Z,5.60
2018-12-20T09:35:28.583Z,5.60
2018-12-20T09:37:56.107Z,5.70
2018-12-20T09:40:23.639Z,5.70
2018-12-20T09:42:51.211Z,5.80
2018-12-20T09:45:18.728Z,5.80
2018-12-20T09:47:55.747Z,5.80
2018-12-20T09:50:23.325Z,5.80
2018-12-20T09:52:51.711Z,5.80
2018-12-20T09:55:19.288Z,5.80
2018-12-20T09:57:46.825Z,5.80
2018-12-20T10:00:14.355Z,5.90
2018-12-20T10:02:41.928Z,5.90
2018-12-20T10:05:09.452Z,5.90
2018-12-20T10:07:36.979Z,5.80
2018-12-20T10:10:04.955Z,5.90
2018-12-20T10:12:32.492Z,5.90
2018-12-20T10:17:46.522Z,5.90
2018-12-20T10:20:14.117Z,5.90
2018-12-20T10:22:41.946Z,5.90
2018-12-20T10:25:09.619Z,5.90
2018-12-20T10:27:37.153Z,5.90
2018-12-20T10:30:05.545Z,6.00
2018-12-20T10:32:33.116Z,6.00
2018-12-20T10:35:00.643Z,6.00
2018-12-20T10:37:28.296Z,6.00
2018-12-20T10:39:55.859Z,6.00
2018-12-20T10:42:23.381Z,6.00
2018-12-20T10:44:50.923Z,6.10
2018-12-20T10:47:28.738Z,6.10
2018-12-20T10:49:53.364Z,6.10
2018-12-20T10:52:20.892Z,6.20
2018-12-20T10:54:48.459Z,6.30
2018-12-20T10:57:15.983Z,6.40
2018-12-20T10:59:43.516Z,6.40
2018-12-20T11:02:16.638Z,6.50
2018-12-20T11:04:49.727Z,6.50
2018-12-20T11:07:22.881Z,6.50
2018-12-20T11:09:56.187Z,6.50
2018-12-20T11:12:26.988Z,6.50
2018-12-20T11:14:54.818Z,6.50
2018-12-20T11:17:22.440Z,6.50
2018-12-20T11:19:50.071Z,6.50
2018-12-20T11:22:17.649Z,6.50
2018-12-20T11:24:45.243Z,6.50
2018-12-20T11:27:12.816Z,6.50
2018-12-20T11:29:40.439Z,6.60
2018-12-20T11:32:07.967Z,6.50
2018-12-20T11:34:35.529Z,6.50
2018-12-20T11:37:03.056Z,6.50
2018-12-20T11:39:30.601Z,6.60
2018-12-20T11:41:58.234Z,6.60
2018-12-20T11:44:25.764Z,6.60
2018-12-20T11:46:53.365Z,6.70
2018-12-20T11:49:20.935Z,6.70
2018-12-20T11:51:48.462Z,6.70
2018-12-20T11:54:16.309Z,6.70
2018-12-20T11:56:43.967Z,6.70
2018-12-20T11:59:11.492Z,6.80
2018-12-20T12:01:39.020Z,6.80
2018-12-20T12:04:06.667Z,6.80
2018-12-20T12:06:34.202Z,6.80
2018-12-20T12:09:01.727Z,6.90
2018-12-20T12:11:29.297Z,6.90
2018-12-20T12:13:57.452Z,6.90
2018-12-20T12:16:25.044Z,7.00
2018-12-20T12:18:52.899Z,7.00
2018-12-20T12:21:20.507Z,7.00
2018-12-20T12:23:48.241Z,7.00
2018-12-20T12:26:15.849Z,7.00
2018-12-20T12:28:43.446Z,7.00
2018-12-20T12:31:11.108Z,7.00
2018-12-20T12:33:38.846Z,7.00
2018-12-20T12:36:06.558Z,7.00
2018-12-20T12:38:34.107Z,6.90
2018-12-20T12:41:01.704Z,6.90
2018-12-20T12:43:29.323Z,6.90
2018-12-20T12:45:57.606Z,6.90
2018-12-20T12:48:25.247Z,6.90
2018-12-20T12:50:52.909Z,6.90
2018-12-20T12:53:20.453Z,6.90
2018-12-20T12:55:48.173Z,6.90
2018-12-20T12:58:15.809Z,7.00
2018-12-20T13:00:43.339Z,7.00
2018-12-20T13:03:10.907Z,6.90
2018-12-20T13:05:38.495Z,6.90
2018-12-20T13:08:06.018Z,7.00
2018-12-20T13:10:33.638Z,7.00
2018-12-20T13:13:01.169Z,7.00
2018-12-20T13:15:28.695Z,7.00
2018-12-20T13:17:56.319Z,7.00
2018-12-20T13:20:23.849Z,7.00
2018-12-20T13:22:51.366Z,7.00
2018-12-20T13:25:19.055Z,7.00
2018-12-20T13:27:46.588Z,7.00
2018-12-20T13:30:14.942Z,7.00
2018-12-20T13:32:42.523Z,7.00
2018-12-20T13:35:10.111Z,7.10
2018-12-20T13:37:37.645Z,7.10
2018-12-20T13:40:06.327Z,7.10
2018-12-20T13:42:33.852Z,7.10
2018-12-20T13:45:01.379Z,7.20
2018-12-20T13:47:28.951Z,7.20
2018-12-20T13:49:56.514Z,7.20
2018-12-20T13:52:24.207Z,7.20
2018-12-20T13:54:51.780Z,7.20
2018-12-20T13:57:19.359Z,7.20
2018-12-20T13:59:46.885Z,7.20
2018-12-20T14:02:14.463Z,7.20
2018-12-20T14:04:42.074Z,7.20
2018-12-20T14:07:09.632Z,7.20
2018-12-20T14:09:37.288Z,7.20
2018-12-20T14:12:04.819Z,7.20
2018-12-20T14:14:32.347Z,7.20
2018-12-20T14:16:59.971Z,7.20
2018-12-20T14:19:28.047Z,7.20
2018-12-20T14:21:55.567Z,7.20
2018-12-20T14:24:23.140Z,7.20
2018-12-20T14:26:50.655Z,7.10
2018-12-20T14:29:18.240Z,7.10
2018-12-20T14:31:45.835Z,7.10
2018-12-20T14:34:13.396Z,7.20
2018-12-20T14:36:40.951Z,7.20
2018-12-20T14:39:08.518Z,7.20
2018-12-20T14:41:36.109Z,7.20
2018-12-20T14:44:03.850Z,7.30
2018-12-20T14:46:31.416Z,7.30
2018-12-20T14:48:58.941Z,7.30
2018-12-20T14:51:26.523Z,7.20
2018-12-20T14:53:54.167Z,7.30
2018-12-20T14:56:21.698Z,7.30
2018-12-20T14:58:49.227Z,7.30
2018-12-20T15:01:16.800Z,7.30
2018-12-20T15:03:44.327Z,7.30
2018-12-20T15:06:11.847Z,7.20
2018-12-20T15:08:39.407Z,7.20
2018-12-20T15:11:06.944Z,7.20
2018-12-20T15:13:34.475Z,7.20
2018-12-20T15:16:02.091Z,7.20
2018-12-20T15:18:29.647Z,7.20
2018-12-20T15:20:57.171Z,7.10
2018-12-20T15:23:24.747Z,7.10
2018-12-20T15:25:52.268Z,7.20
2018-12-20T15:28:19.788Z,7.20
2018-12-20T15:30:47.805Z,7.40
2018-12-20T15:33:15.593Z,7.40
2018-12-20T15:35:43.156Z,7.50
2018-12-20T15:38:10.982Z,7.50
2018-12-20T15:40:38.540Z,7.50
2018-12-20T15:43:06.209Z,7.60
2018-12-20T15:45:33.869Z,7.60
2018-12-20T15:48:01.549Z,7.50
2018-12-20T15:50:29.968Z,7.50
2018-12-20T15:52:57.692Z,7.50
2018-12-20T15:55:26.351Z,7.40
2018-12-20T15:57:54.031Z,7.40
2018-12-20T16:00:23.438Z,7.40
2018-12-20T16:02:51.019Z,7.40
2018-12-20T16:05:18.756Z,7.30
2018-12-20T16:07:47.043Z,7.30
2018-12-20T16:10:14.571Z,7.30
2018-12-20T16:12:42.379Z,7.20
2018-12-20T16:15:10.039Z,7.20
2018-12-20T16:17:37.697Z,7.30
2018-12-20T16:20:05.776Z,7.20
2018-12-20T16:22:33.291Z,7.20
2018-12-20T16:25:00.905Z,7.20
2018-12-20T16:27:28.466Z,7.20
2018-12-20T16:29:56.055Z,7.20
2018-12-20T16:32:23.683Z,7.20
2018-12-20T16:34:51.250Z,7.10
2018-12-20T16:37:18.816Z,7.10
2018-12-20T16:39:46.416Z,7.10
2018-12-20T16:42:13.941Z,7.10
2018-12-20T16:44:41.910Z,7.10
2018-12-20T16:47:09.727Z,7.10
2018-12-20T16:49:37.331Z,7.10
2018-12-20T16:52:04.935Z,7.10
2018-12-20T16:54:32.747Z,7.10
2018-12-20T16:57:00.289Z,7.10
2018-12-20T16:59:27.916Z,7.10
2018-12-20T17:01:55.508Z,7.10
2018-12-20T17:04:23.156Z,7.10
2018-12-20T17:06:50.779Z,7.10
2018-12-20T17:09:18.650Z,7.10
2018-12-20T17:11:46.543Z,7.10
2018-12-20T17:14:14.229Z,7.00
2018-12-20T17:16:41.887Z,7.10
2018-12-20T17:19:09.579Z,7.10
2018-12-20T17:21:37.134Z,7.00
2018-12-20T17:24:04.670Z,7.10
2018-12-20T17:26:32.237Z,7.10
2018-12-20T17:28:59.811Z,7.00
2018-12-20T17:31:27.521Z,7.00
2018-12-20T17:33:55.111Z,7.00
2018-12-20T17:36:22.649Z,7.00
2018-12-20T17:38:51.276Z,7.00
2018-12-20T17:41:18.991Z,7.00
2018-12-20T17:43:46.689Z,7.00
2018-12-20T17:46:14.312Z,7.00
2018-12-20T17:48:42.281Z,7.00
2018-12-20T17:51:10.166Z,7.00
2018-12-20T17:53:37.835Z,7.00
2018-12-20T17:56:05.804Z,7.00
2018-12-20T17:58:33.546Z,7.10
2018-12-20T18:01:01.304Z,7.10
2018-12-20T18:03:29.172Z,7.10
2018-12-20T18:05:56.767Z,7.00
2018-12-20T18:08:24.621Z,7.00
2018-12-20T18:10:52.163Z,6.90
2018-12-20T18:13:19.871Z,6.90
2018-12-20T18:15:47.434Z,6.90
2018-12-20T18:18:14.976Z,6.90
2018-12-20T18:20:42.645Z,6.90
2018-12-20T18:23:10.230Z,6.90
2018-12-20T18:25:37.756Z,6.90
2018-12-20T18:28:05.469Z,6.90
2018-12-20T18:30:32.997Z,6.90
2018-12-20T18:33:00.539Z,6.90
2018-12-20T18:35:28.286Z,6.90
2018-12-20T18:37:55.923Z,6.90
2018-12-20T18:40:23.472Z,7.00
2018-12-20T18:42:51.052Z,7.00
2018-12-20T18:45:18.608Z,7.00
2018-12-20T18:47:46.150Z,7.00
2018-12-20T18:50:13.835Z,7.00
2018-12-20T18:52:41.356Z,7.00
2018-12-20T18:55:08.910Z,7.10
2018-12-20T18:57:36.476Z,7.10
2018-12-20T19:00:05.530Z,7.10
2018-12-20T19:02:33.309Z,7.10
2018-12-20T19:05:00.876Z,7.10
2018-12-20T19:07:28.471Z,7.10
2018-12-20T19:09:55.993Z,7.10
2018-12-20T19:12:23.628Z,7.10
2018-12-20T19:14:51.211Z,7.20
2018-12-20T19:17:19.323Z,7.20
2018-12-20T19:19:55.976Z,7.20
2018-12-20T19:22:17.278Z,7.20
2018-12-20T19:24:44.839Z,7.20
2018-12-20T19:27:13.486Z,7.20
2018-12-20T19:29:41.131Z,7.20
2018-12-20T19:32:08.656Z,7.20
2018-12-20T19:34:36.260Z,7.20
2018-12-20T19:37:04.032Z,7.10
2018-12-20T19:39:31.975Z,7.10
2018-12-20T19:42:01.523Z,7.10
2018-12-20T19:44:29.839Z,7.10
2018-12-20T19:46:57.399Z,7.10
2018-12-20T19:49:25.056Z,7.10
2018-12-20T19:51:52.575Z,7.10
2018-12-20T19:54:20.224Z,7.10
2018-12-20T19:56:48.073Z,7.10
2018-12-20T19:59:15.787Z,7.00
2018-12-20T20:01:43.462Z,7.10
2018-12-20T20:04:11.038Z,7.00
2018-12-20T20:06:38.683Z,7.20
2018-12-20T20:09:06.679Z,7.20
2018-12-20T20:11:35.491Z,7.30
2018-12-20T20:14:03.108Z,7.30
2018-12-20T20:16:30.639Z,7.30
2018-12-20T20:18:58.249Z,7.30
2018-12-20T20:21:25.795Z,7.20
2018-12-20T20:23:53.683Z,7.20
2018-12-20T20:26:21.464Z,7.20
2018-12-20T20:28:49.047Z,7.10
2018-12-20T20:31:18.350Z,7.10
2018-12-20T20:33:45.922Z,7.20
2018-12-20T20:36:13.546Z,7.20
2018-12-20T20:38:41.179Z,7.20
2018-12-20T20:41:08.732Z,7.20
2018-12-20T20:43:36.349Z,7.10
2018-12-20T20:46:04.858Z,7.10
2018-12-20T20:48:32.433Z,7.10
2018-12-20T20:51:00.014Z,7.10
2018-12-20T20:53:27.680Z,7.00
2018-12-20T20:55:55.215Z,7.00
2018-12-20T20:58:22.745Z,7.00
2018-12-20T21:00:50.620Z,7.00
2018-12-20T21:03:18.167Z,7.00
2018-12-20T21:05:45.715Z,7.00
2018-12-20T21:08:13.307Z,6.90
2018-12-20T21:10:40.935Z,7.00
2018-12-20T21:13:08.463Z,7.00
2018-12-20T21:15:36.088Z,7.00
2018-12-20T21:18:03.683Z,7.00
2018-12-20T21:20:31.219Z,7.00
2018-12-20T21:22:58.790Z,7.00
2018-12-20T21:25:26.308Z,7.00
2018-12-20T21:27:53.831Z,7.00
2018-12-20T21:30:21.393Z,6.90
2018-12-20T21:32:48.911Z,6.90
2018-12-20T21:35:16.502Z,6.90
2018-12-20T21:37:44.077Z,6.90
2018-12-20T21:40:11.654Z,7.00
2018-12-20T21:42:39.174Z,6.90
2018-12-20T21:45:07.007Z,6.90
2018-12-20T21:47:35.352Z,6.90
2018-12-20T21:50:03.046Z,6.90
2018-12-20T21:52:30.628Z,6.90
2018-12-20T21:54:58.145Z,6.90
2018-12-20T21:57:25.668Z,6.90
2018-12-20T22:00:01.019Z,6.90
2018-12-20T22:02:22.831Z,6.90
2018-12-20T22:04:50.356Z,6.90
2018-12-20T22:07:17.936Z,6.90
2018-12-20T22:09:45.560Z,6.90
2018-12-20T22:12:13.083Z,6.90
2018-12-20T22:14:40.672Z,6.90
2018-12-20T22:17:09.181Z,6.90
2018-12-20T22:19:36.708Z,6.90
2018-12-20T22:22:04.319Z,6.90
2018-12-20T22:24:31.839Z,6.90
2018-12-20T22:26:59.367Z,6.90
2018-12-20T22:29:26.937Z,6.90
2018-12-20T22:31:54.721Z,6.90
2018-12-20T22:34:22.259Z,6.90
2018-12-20T22:36:49.834Z,6.90
2018-12-20T22:39:17.367Z,6.90
2018-12-20T22:41:44.903Z,6.90
2018-12-20T22:44:12.507Z,6.90
2018-12-20T22:46:40.047Z,6.90
2018-12-20T22:49:07.638Z,6.90
2018-12-20T22:51:36.138Z,6.90
2018-12-20T22:54:03.711Z,6.90
2018-12-20T22:56:31.247Z,6.90
2018-12-20T22:58:58.807Z,6.90
2018-12-20T23:01:26.451Z,6.90
2018-12-20T23:03:54.038Z,6.90
2018-12-20T23:06:21.607Z,6.90
2018-12-20T23:08:49.695Z,6.90
2018-12-20T23:11:17.291Z,6.90
2018-12-20T23:13:44.916Z,6.90
2018-12-20T23:16:12.443Z,6.90
2018-12-20T23:18:40.288Z,7.00
2018-12-20T23:21:07.851Z,7.00
2018-12-20T23:23:35.388Z,7.00
2018-12-20T23:26:02.915Z,7.00
2018-12-20T23:28:30.612Z,7.00
2018-12-20T23:30:58.247Z,7.10
2018-12-20T23:33:25.769Z,7.00
2018-12-20T23:35:53.404Z,7.00
2018-12-20T23:38:20.927Z,7.00
2018-12-20T23:40:48.497Z,6.90
2018-12-20T23:43:16.034Z,6.90
2018-12-20T23:45:43.671Z,6.90
2018-12-20T23:48:11.231Z,6.90
2018-12-20T23:50:38.757Z,6.90
2018-12-20T23:53:06.820Z,6.90
2018-12-20T23:55:34.377Z,6.90
2018-12-20T23:58:01.907Z,7.00
